Time;durP1;ratioP1;P1;durP2;ratioP2;P2;SDS_P1;SDS_P2;PMS_P1;PMS_P2;Temp;Humidity;BMP_temperature;BMP_pressure;BME280_temperature;BME280_humidity;BME280_pressure;Samples;Min_cycle;Max_cycle;Signal;HPM_P1;HPM_P2
2024/01/04 00:00:34;;;;;;;4.00;2.22;;;;;;;-146.82;100.00;71671.09;5012119;28;20493;-77
2024/01/04 00:02:59;;;;;;;4.15;2.08;;;;;;;-146.82;100.00;71671.09;5023222;28;20029;-77
2024/01/04 00:05:25;;;;;;;3.47;1.60;;;;;;;-146.82;100.00;71671.09;5022619;28;20032;-78
2024/01/04 00:07:53;;;;;;;2.33;1.70;;;;;;;-146.82;100.00;71671.09;5022352;28;20018;-79
2024/01/04 00:10:19;;;;;;;3.08;1.48;;;;;;;-146.82;100.00;71671.09;5022428;28;20026;-78
2024/01/04 00:12:48;;;;;;;3.15;1.40;;;;;;;-146.82;100.00;71671.09;5022396;28;20026;-77
2024/01/04 00:15:16;;;;;;;2.90;1.52;;;;;;;-146.82;100.00;71671.09;5022588;28;20029;-77
2024/01/04 00:17:43;;;;;;;2.30;1.52;;;;;;;-146.82;100.00;71671.09;5023847;28;20527;-77
2024/01/04 00:20:10;;;;;;;3.47;1.40;;;;;;;-146.82;100.00;71671.09;5022499;28;20054;-77
2024/01/04 00:22:39;;;;;;;2.35;1.60;;;;;;;-146.82;100.00;71671.09;5024846;28;20080;-76
2024/01/04 00:25:05;;;;;;;3.53;1.40;;;;;;;-146.82;100.00;71671.09;5026245;28;20103;-76
2024/01/04 00:27:31;;;;;;;2.13;1.20;;;;;;;-146.82;100.00;71671.09;5025112;28;20049;-78
2024/01/04 00:29:58;;;;;;;4.78;1.92;;;;;;;-146.82;100.00;71671.09;5022730;28;20017;-79
2024/01/04 00:32:25;;;;;;;3.50;2.10;;;;;;;-146.82;100.00;71671.09;5023153;28;20026;-76
2024/01/04 00:34:53;;;;;;;4.10;2.38;;;;;;;-146.82;100.00;71671.09;5023800;28;20851;-77
2024/01/04 00:37:22;;;;;;;7.18;2.15;;;;;;;-146.82;100.00;71671.09;5021549;28;20072;-78
2024/01/04 00:39:48;;;;;;;4.35;1.90;;;;;;;-146.82;100.00;71671.09;5020542;28;20033;-78
2024/01/04 00:42:14;;;;;;;3.53;1.60;;;;;;;-146.82;100.00;71671.09;5021950;28;20402;-77
2024/01/04 00:44:39;;;;;;;4.15;2.00;;;;;;;-146.82;100.00;71671.09;5021796;28;20037;-76
2024/01/04 00:47:06;;;;;;;3.55;1.88;;;;;;;-146.82;100.00;71671.09;5021806;28;20021;-77
2024/01/04 00:49:32;;;;;;;3.38;1.65;;;;;;;-146.82;100.00;71671.09;5021845;28;20014;-77
2024/01/04 00:51:57;;;;;;;6.70;2.40;;;;;;;-146.82;100.00;71671.09;5023696;28;20014;-77
2024/01/04 00:54:23;;;;;;;4.50;2.10;;;;;;;-146.82;100.00;71671.09;5021345;28;20076;-78
2024/01/04 00:56:51;;;;;;;6.70;2.50;;;;;;;-146.82;100.00;71671.09;5020977;28;20043;-78
2024/01/04 00:59:17;;;;;;;7.25;2.53;;;;;;;-146.82;100.00;71671.09;5022940;28;20025;-77
2024/01/04 01:01:44;;;;;;;5.20;2.53;;;;;;;-146.82;100.00;71671.09;5020071;28;20048;-78
2024/01/04 01:04:11;;;;;;;4.13;1.92;;;;;;;-146.82;100.00;71671.09;5005455;28;20405;-78
2024/01/04 01:06:37;;;;;;;3.38;1.70;;;;;;;-146.82;100.00;71671.09;5022596;28;20021;-78
2024/01/04 01:09:03;;;;;;;5.45;2.25;;;;;;;-146.82;100.00;71671.09;5021920;28;20022;-78
2024/01/04 01:11:31;;;;;;;4.75;1.95;;;;;;;-146.82;100.00;71671.09;5021688;28;20030;-77
2024/01/04 01:13:57;;;;;;;3.63;1.75;;;;;;;-146.82;100.00;71671.09;5023906;28;20013;-78
2024/01/04 01:16:23;;;;;;;4.78;1.88;;;;;;;-146.82;100.00;71671.09;5021448;28;20022;-79
2024/01/04 01:18:51;;;;;;;6.13;1.73;;;;;;;-146.82;100.00;71671.09;5024439;28;20045;-78
2024/01/04 01:21:17;;;;;;;6.60;1.83;;;;;;;-146.82;100.00;71671.09;5026975;28;20022;-78
2024/01/04 01:23:43;;;;;;;4.35;1.48;;;;;;;-146.82;100.00;71671.09;5026384;28;20030;-78
2024/01/04 01:26:09;;;;;;;4.05;1.70;;;;;;;-146.82;100.00;71671.09;5028596;28;20041;-78
2024/01/04 01:28:35;;;;;;;4.70;1.90;;;;;;;-146.82;100.00;71671.09;5028216;28;20115;-78
2024/01/04 01:31:02;;;;;;;4.72;1.92;;;;;;;-146.82;100.00;71671.09;5028889;28;20092;-78
2024/01/04 01:33:45;;;;;;;2.38;1.42;;;;;;;-146.82;100.00;71671.09;5027101;28;20467;-77
2024/01/04 01:36:11;;;;;;;2.17;1.38;;;;;;;-146.82;100.00;71671.09;5027547;28;20063;-78
2024/01/04 01:38:37;;;;;;;2.58;1.30;;;;;;;-146.82;100.00;71671.09;5027147;28;20030;-79
2024/01/04 01:41:04;;;;;;;1.50;0.85;;;;;;;-146.82;100.00;71671.09;5026653;28;20018;-80
2024/01/04 01:43:30;;;;;;;1.65;1.00;;;;;;;-146.82;100.00;71671.09;5024490;28;20462;-79
2024/01/04 01:45:56;;;;;;;2.05;0.90;;;;;;;-146.82;100.00;71671.09;5025676;28;20105;-80
2024/01/04 01:48:21;;;;;;;2.15;0.90;;;;;;;-146.82;100.00;71671.09;5024911;28;20025;-78
2024/01/04 01:50:47;;;;;;;2.22;0.77;;;;;;;-146.82;100.00;71671.09;5026003;28;20023;-79
2024/01/04 01:53:14;;;;;;;2.58;1.00;;;;;;;-146.82;100.00;71671.09;5025648;28;20083;-79
2024/01/04 01:55:43;;;;;;;2.97;0.80;;;;;;;-146.82;100.00;71671.09;5025705;28;20045;-80
2024/01/04 01:58:09;;;;;;;1.38;1.10;;;;;;;-146.82;100.00;71671.09;5025162;28;20528;-78
2024/01/04 02:00:50;;;;;;;1.52;1.02;;;;;;;-146.82;100.00;71671.09;5023695;28;20029;-79
2024/01/04 02:03:18;;;;;;;2.10;1.07;;;;;;;-146.82;100.00;71671.09;5025961;28;20036;-80
2024/01/04 02:05:45;;;;;;;1.20;0.93;;;;;;;-146.82;100.00;71671.09;5024720;28;20078;-80
2024/01/04 02:08:12;;;;;;;1.42;0.90;;;;;;;-146.82;100.00;71671.09;5026622;28;20113;-80
2024/01/04 02:10:39;;;;;;;2.92;1.10;;;;;;;-146.82;100.00;71671.09;5023882;28;20046;-79
2024/01/04 02:13:05;;;;;;;1.83;0.90;;;;;;;-146.82;100.00;71671.09;5023518;28;20040;-81
2024/01/04 02:15:31;;;;;;;1.23;0.85;;;;;;;-146.82;100.00;71671.09;5023962;28;20383;-80
2024/01/04 02:17:57;;;;;;;1.10;0.90;;;;;;;-146.82;100.00;71671.09;5025305;28;20029;-79
2024/01/04 02:20:24;;;;;;;1.25;0.98;;;;;;;-146.82;100.00;71671.09;5025515;28;20128;-80
2024/01/04 02:22:51;;;;;;;1.50;0.95;;;;;;;-146.82;100.00;71671.09;5025720;28;20499;-82
2024/01/04 02:25:17;;;;;;;1.42;0.90;;;;;;;-146.82;100.00;71671.09;5024831;28;20159;-81
2024/01/04 02:27:44;;;;;;;1.10;0.95;;;;;;;-146.82;100.00;71671.09;5023220;28;20018;-79
2024/01/04 02:30:15;;;;;;;0.90;0.80;;;;;;;-146.82;100.00;71671.09;5024273;28;20029;-81
2024/01/04 02:32:40;;;;;;;0.90;0.80;;;;;;;-146.82;100.00;71671.09;5025546;28;20029;-80
2024/01/04 02:35:06;;;;;;;2.03;0.88;;;;;;;-146.82;100.00;71671.09;5024651;28;20108;-80
2024/01/04 02:37:31;;;;;;;1.13;0.82;;;;;;;-146.82;100.00;71671.09;5024695;28;20026;-81
2024/01/04 02:39:58;;;;;;;1.90;1.20;;;;;;;-146.82;100.00;71671.09;5023692;28;20512;-82
2024/01/04 02:42:24;;;;;;;2.20;1.30;;;;;;;-146.82;100.00;71671.09;5024839;28;20475;-79
2024/01/04 02:44:49;;;;;;;1.08;0.90;;;;;;;-146.82;100.00;71671.09;5021449;28;20041;-78
2024/01/04 02:47:16;;;;;;;1.95;1.20;;;;;;;-146.82;100.00;71671.09;5024117;28;20025;-80
2024/01/04 02:49:42;;;;;;;3.42;1.30;;;;;;;-146.82;100.00;71671.09;5025641;28;20036;-80
2024/01/04 02:52:12;;;;;;;2.42;1.45;;;;;;;-146.82;100.00;71671.09;5023676;28;20083;-79
2024/01/04 02:54:50;;;;;;;4.05;1.13;;;;;;;-146.82;100.00;71671.09;5023097;28;20099;-75
2024/01/04 02:57:16;;;;;;;1.33;0.80;;;;;;;-146.82;100.00;71671.09;5023919;28;20096;-76
2024/01/04 02:59:44;;;;;;;0.93;0.55;;;;;;;-146.82;100.00;71671.09;5025942;28;20010;-76
2024/01/04 03:02:09;;;;;;;1.80;0.73;;;;;;;-146.82;100.00;71671.09;5024997;28;20013;-75
2024/01/04 03:04:36;;;;;;;1.33;0.60;;;;;;;-146.82;100.00;71671.09;5023446;28;20466;-75
2024/01/04 03:07:03;;;;;;;0.90;0.68;;;;;;;-146.82;100.00;71671.09;5025111;28;20017;-77
2024/01/04 03:09:29;;;;;;;1.65;0.73;;;;;;;-146.82;100.00;71671.09;5025136;28;20071;-74
2024/01/04 03:11:54;;;;;;;0.68;0.63;;;;;;;-146.82;100.00;71671.09;5025905;28;20021;-77
2024/01/04 03:14:21;;;;;;;1.80;0.77;;;;;;;-146.82;100.00;71671.09;5024662;28;20032;-75
2024/01/04 03:16:47;;;;;;;3.03;0.90;;;;;;;-146.82;100.00;71671.09;5023157;28;20033;-78
2024/01/04 03:19:12;;;;;;;1.30;0.80;;;;;;;-146.82;100.00;71671.09;5023552;28;20492;-76
2024/01/04 03:21:41;;;;;;;1.52;0.65;;;;;;;-146.82;100.00;71671.09;5023948;28;20021;-74
2024/01/04 03:24:07;;;;;;;3.22;0.90;;;;;;;-146.82;100.00;71671.09;5022926;28;20033;-76
2024/01/04 03:26:32;;;;;;;1.10;0.65;;;;;;;-146.82;100.00;71671.09;5024737;28;20043;-75
2024/01/04 03:28:58;;;;;;;1.13;0.80;;;;;;;-146.82;100.00;71671.09;5022500;28;20493;-75
2024/01/04 03:31:25;;;;;;;1.23;0.55;;;;;;;-146.82;100.00;71671.09;5024109;28;20029;-75
2024/01/04 03:33:51;;;;;;;0.73;0.60;;;;;;;-146.82;100.00;71671.09;5024622;28;20427;-76
2024/01/04 03:36:18;;;;;;;1.42;0.70;;;;;;;-146.82;100.00;71671.09;5023205;28;20025;-77
2024/01/04 03:38:45;;;;;;;2.63;0.60;;;;;;;-146.82;100.00;71671.09;5012775;28;20502;-75
2024/01/04 03:41:11;;;;;;;1.40;0.60;;;;;;;-146.82;100.00;71671.09;5022991;28;20037;-75
2024/01/04 03:43:37;;;;;;;1.23;0.90;;;;;;;-146.82;100.00;71671.09;5024464;28;20022;-75
2024/01/04 03:46:08;;;;;;;0.82;0.82;;;;;;;-146.82;100.00;71671.09;5024138;28;20022;-76
2024/01/04 03:48:35;;;;;;;3.08;1.00;;;;;;;-146.82;100.00;71671.09;5024621;28;20030;-76
2024/01/04 03:51:03;;;;;;;0.90;0.73;;;;;;;-146.82;100.00;71671.09;5022575;28;20022;-76
2024/01/04 03:53:29;;;;;;;1.40;0.70;;;;;;;-146.82;100.00;71671.09;5023221;28;20076;-77
2024/01/04 03:55:56;;;;;;;1.35;0.82;;;;;;;-146.82;100.00;71671.09;5023439;28;20068;-78
2024/01/04 03:58:21;;;;;;;1.90;0.80;;;;;;;-146.82;100.00;71671.09;5023648;28;20029;-78
2024/01/04 04:00:49;;;;;;;1.90;0.65;;;;;;;-146.82;100.00;71671.09;5022481;28;20033;-77
2024/01/04 04:03:18;;;;;;;1.05;0.60;;;;;;;-146.82;100.00;71671.09;5022172;28;20025;-77
2024/01/04 04:05:45;;;;;;;1.95;0.80;;;;;;;-146.82;100.00;71671.09;5024620;28;20033;-78
2024/01/04 04:08:10;;;;;;;2.00;0.90;;;;;;;-146.82;100.00;71671.09;5022416;28;20028;-78
2024/01/04 04:10:35;;;;;;;2.55;0.70;;;;;;;-146.82;100.00;71671.09;5022398;28;20025;-79
2024/01/04 04:13:01;;;;;;;1.95;0.75;;;;;;;-146.82;100.00;71671.09;5022153;28;20113;-78
2024/01/04 04:15:27;;;;;;;2.15;0.60;;;;;;;-146.82;100.00;71671.09;5022580;28;20017;-78
2024/01/04 04:17:55;;;;;;;1.25;0.70;;;;;;;-146.82;100.00;71671.09;5021131;28;20089;-77
2024/01/04 04:20:23;;;;;;;0.88;0.77;;;;;;;-146.82;100.00;71671.09;5022510;28;20046;-77
2024/01/04 04:22:49;;;;;;;1.17;0.65;;;;;;;-146.82;100.00;71671.09;5021767;28;20018;-78
2024/01/04 04:25:14;;;;;;;1.88;0.88;;;;;;;-146.82;100.00;71671.09;5023161;28;20545;-77
2024/01/04 04:27:41;;;;;;;0.80;0.52;;;;;;;-146.82;100.00;71671.09;5023956;28;20493;-78
2024/01/04 04:30:06;;;;;;;2.75;0.70;;;;;;;-146.82;100.00;71671.09;5022076;28;20017;-77
2024/01/04 04:32:32;;;;;;;2.00;0.80;;;;;;;-146.82;100.00;71671.09;5021867;28;20077;-77
2024/01/04 04:34:58;;;;;;;0.90;0.57;;;;;;;-146.82;100.00;71671.09;5023472;28;20018;-77
2024/01/04 04:37:24;;;;;;;0.80;0.63;;;;;;;-146.82;100.00;71671.09;5022709;28;20087;-76
2024/01/04 04:39:50;;;;;;;0.88;0.60;;;;;;;-146.82;100.00;71671.09;5022340;28;20037;-76
2024/01/04 04:42:17;;;;;;;0.95;0.77;;;;;;;-146.82;100.00;71671.09;5022403;28;20021;-78
2024/01/04 04:44:43;;;;;;;1.13;0.68;;;;;;;-146.82;100.00;71671.09;5023388;28;20024;-78
2024/01/04 04:47:21;;;;;;;0.38;0.38;;;;;;;-146.82;100.00;71671.09;5022629;28;20022;-78
2024/01/04 04:49:47;;;;;;;1.02;0.60;;;;;;;-146.82;100.00;71671.09;5021772;28;20017;-77
2024/01/04 04:52:14;;;;;;;1.63;0.70;;;;;;;-146.82;100.00;71671.09;5023475;28;20025;-78
2024/01/04 04:54:39;;;;;;;0.82;0.47;;;;;;;-146.82;100.00;71671.09;5025493;28;20022;-77
2024/01/04 04:57:07;;;;;;;1.70;1.00;;;;;;;-146.82;100.00;71671.09;5027556;28;20482;-77
2024/01/04 04:59:32;;;;;;;1.42;0.85;;;;;;;-146.82;100.00;71671.09;5026570;28;20014;-77
2024/01/04 05:02:00;;;;;;;0.60;0.60;;;;;;;-146.82;100.00;71671.09;5026382;28;20032;-77
2024/01/04 05:04:27;;;;;;;3.90;0.60;;;;;;;-146.82;100.00;71671.09;5026736;28;20083;-77
2024/01/04 05:06:55;;;;;;;1.77;0.75;;;;;;;-146.82;100.00;71671.09;5028010;28;20104;-78
2024/01/04 05:09:20;;;;;;;1.23;0.80;;;;;;;-146.82;100.00;71671.09;5024680;28;20037;-77
2024/01/04 05:11:46;;;;;;;1.70;0.63;;;;;;;-146.82;100.00;71671.09;5025992;28;20022;-77
2024/01/04 05:14:14;;;;;;;0.90;0.57;;;;;;;-146.82;100.00;71671.09;5026055;28;20018;-78
2024/01/04 05:16:40;;;;;;;0.93;0.65;;;;;;;-146.82;100.00;71671.09;5026437;28;20041;-77
2024/01/04 05:19:10;;;;;;;0.90;0.73;;;;;;;-146.82;100.00;71671.09;5026248;28;20042;-76
2024/01/04 05:21:36;;;;;;;2.72;1.05;;;;;;;-146.82;100.00;71671.09;5027869;28;20025;-75
2024/01/04 05:24:03;;;;;;;5.95;1.98;;;;;;;-146.82;100.00;71671.09;5026823;28;20460;-77
2024/01/04 05:26:30;;;;;;;2.83;0.70;;;;;;;-146.82;100.00;71671.09;5023077;28;20030;-77
2024/01/04 05:28:56;;;;;;;3.63;1.05;;;;;;;-146.82;100.00;71671.09;5040599;28;20032;-77
2024/01/04 05:31:22;;;;;;;2.15;1.20;;;;;;;-146.82;100.00;71671.09;5024662;28;20026;-76
2024/01/04 05:33:48;;;;;;;1.27;0.95;;;;;;;-146.82;100.00;71671.09;5024653;28;20087;-77
2024/01/04 05:36:16;;;;;;;1.55;1.00;;;;;;;-146.82;100.00;71671.09;5024488;28;20054;-78
2024/01/04 05:38:41;;;;;;;1.98;1.52;;;;;;;-146.82;100.00;71671.09;5026332;28;20030;-77
2024/01/04 05:41:06;;;;;;;1.85;1.20;;;;;;;-146.82;100.00;71671.09;5025595;28;20028;-76
2024/01/04 05:43:33;;;;;;;2.95;1.80;;;;;;;-146.82;100.00;71671.09;5026961;28;20100;-76
2024/01/04 05:46:02;;;;;;;3.33;1.40;;;;;;;-146.82;100.00;71671.09;5024585;28;20026;-78
2024/01/04 05:48:49;;;;;;;1.83;1.30;;;;;;;-146.82;100.00;71671.09;5023202;28;20029;-79
2024/01/04 05:51:16;;;;;;;2.58;1.13;;;;;;;-146.82;100.00;71671.09;5025772;28;20461;-77
2024/01/04 05:53:43;;;;;;;4.53;1.63;;;;;;;-146.82;100.00;71671.09;5025762;28;20029;-76
2024/01/04 05:56:09;;;;;;;4.35;1.40;;;;;;;-146.82;100.00;71671.09;5023635;28;20100;-79
2024/01/04 05:58:39;;;;;;;2.95;1.17;;;;;;;-146.82;100.00;71671.09;5025253;28;20049;-79
2024/01/04 06:01:05;;;;;;;1.33;1.00;;;;;;;-146.82;100.00;71671.09;5024400;28;20040;-77
2024/01/04 06:03:33;;;;;;;1.02;0.90;;;;;;;-146.82;100.00;71671.09;5023453;28;20038;-77
2024/01/04 06:05:58;;;;;;;2.17;0.90;;;;;;;-146.82;100.00;71671.09;5023882;28;20467;-78
2024/01/04 06:08:25;;;;;;;3.42;1.20;;;;;;;-146.82;100.00;71671.09;5004636;28;20104;-77
2024/01/04 06:10:51;;;;;;;2.38;0.98;;;;;;;-146.82;100.00;71671.09;5003485;28;20146;-76
2024/01/04 06:13:25;;;;;;;4.35;1.50;;;;;;;-146.82;100.00;71671.09;5004017;28;20038;-74
2024/01/04 06:15:52;;;;;;;2.50;1.10;;;;;;;-146.82;100.00;71671.09;5001879;28;20074;-77
2024/01/04 06:18:18;;;;;;;0.90;0.80;;;;;;;-146.82;100.00;71671.09;5001734;28;20042;-78
2024/01/04 06:20:47;;;;;;;1.83;1.05;;;;;;;-146.82;100.00;71671.09;5001466;28;20903;-76
2024/01/04 06:23:15;;;;;;;1.30;0.85;;;;;;;-146.82;100.00;71671.09;5002342;28;20068;-76
2024/01/04 06:25:45;;;;;;;2.15;0.93;;;;;;;-146.82;100.00;71671.09;5009580;28;20578;-83
2024/01/04 06:28:10;;;;;;;1.92;0.90;;;;;;;-146.82;100.00;71671.09;5012093;28;20040;-76
2024/01/04 06:30:37;;;;;;;1.23;0.88;;;;;;;-146.82;100.00;71671.09;5012989;28;20037;-77
2024/01/04 06:33:04;;;;;;;1.10;0.90;;;;;;;-146.82;100.00;71671.09;4996744;28;20117;-78
2024/01/04 06:35:32;;;;;;;1.13;0.90;;;;;;;-146.82;100.00;71671.09;5013720;28;20108;-77
2024/01/04 06:37:59;;;;;;;1.45;0.98;;;;;;;-146.82;100.00;71671.09;5013579;28;20415;-78
2024/01/04 06:40:24;;;;;;;3.30;1.38;;;;;;;-146.82;100.00;71671.09;5016287;28;20038;-77
2024/01/04 06:42:55;;;;;;;2.92;1.33;;;;;;;-146.82;100.00;71671.09;5016142;28;20119;-76
2024/01/04 06:45:25;;;;;;;2.30;1.15;;;;;;;-146.82;100.00;71671.09;5016010;28;20028;-78
2024/01/04 06:47:51;;;;;;;2.17;1.10;;;;;;;-146.82;100.00;71671.09;5014596;28;20410;-77
2024/01/04 06:50:17;;;;;;;2.92;1.30;;;;;;;-146.82;100.00;71671.09;5015154;28;20029;-79
2024/01/04 06:52:44;;;;;;;4.72;1.45;;;;;;;-146.82;100.00;71671.09;5015480;28;20084;-78
2024/01/04 06:55:10;;;;;;;2.40;1.40;;;;;;;-146.82;100.00;71671.09;5014496;28;20446;-80
2024/01/04 06:57:37;;;;;;;5.38;1.63;;;;;;;-146.82;100.00;71671.09;5015484;28;20132;-77
2024/01/04 07:00:07;;;;;;;6.32;1.60;;;;;;;-146.82;100.00;71671.09;5006202;28;20374;-90
2024/01/04 07:02:36;;;;;;;2.47;1.63;;;;;;;-146.82;100.00;71671.09;5033690;28;20017;-87
2024/01/04 07:05:06;;;;;;;3.30;1.65;;;;;;;-146.82;100.00;71671.09;5032399;28;20063;-87
2024/01/04 07:07:34;;;;;;;1.98;1.67;;;;;;;-146.82;100.00;71671.09;5026983;28;20088;-89
2024/01/04 07:10:04;;;;;;;4.22;2.00;;;;;;;-146.82;100.00;71671.09;5039992;28;20025;-89
2024/01/04 07:12:32;;;;;;;4.18;2.47;;;;;;;-146.82;100.00;71671.09;5039618;28;20028;-89
2024/01/04 07:14:58;;;;;;;4.68;2.00;;;;;;;-146.82;100.00;71671.09;5002120;28;20117;-87
2024/01/04 07:17:24;;;;;;;2.88;1.85;;;;;;;-146.82;100.00;71671.09;5034896;28;20136;-88
2024/01/04 07:19:53;;;;;;;3.05;1.67;;;;;;;-146.82;100.00;71671.09;5020354;28;20042;-88
2024/01/04 07:22:20;;;;;;;3.00;1.50;;;;;;;-146.82;100.00;71671.09;5039586;28;20040;-89
2024/01/04 07:24:53;;;;;;;5.90;1.50;;;;;;;-146.82;100.00;71671.09;5040662;28;20038;-87
2024/01/04 07:27:20;;;;;;;4.22;1.48;;;;;;;-146.82;100.00;71671.09;5021816;28;20021;-87
2024/01/04 07:29:46;;;;;;;2.75;1.60;;;;;;;-146.82;100.00;71671.09;5019386;28;20029;-89
2024/01/04 07:32:11;;;;;;;3.45;1.67;;;;;;;-146.82;100.00;71671.09;5035812;28;20037;-89
2024/01/04 07:34:59;;;;;;;2.95;1.80;;;;;;;-146.82;100.00;71671.09;5033974;28;20482;-88
2024/01/04 07:37:24;;;;;;;4.32;1.77;;;;;;;-146.82;100.00;71671.09;5038063;28;20045;-88
2024/01/04 07:39:51;;;;;;;5.07;1.60;;;;;;;-146.82;100.00;71671.09;5038091;28;20124;-88
2024/01/04 07:42:18;;;;;;;3.15;1.60;;;;;;;-146.82;100.00;71671.09;5021254;28;20030;-91
2024/01/04 07:44:45;;;;;;;2.30;1.52;;;;;;;-146.82;100.00;71671.09;5038767;28;20483;-89
2024/01/04 07:47:10;;;;;;;4.15;2.30;;;;;;;-146.82;100.00;71671.09;5038925;28;20035;-91
2024/01/04 07:49:36;;;;;;;2.63;1.75;;;;;;;-146.82;100.00;71671.09;5039080;28;20056;-89
2024/01/04 07:52:02;;;;;;;4.05;1.48;;;;;;;-146.82;100.00;71671.09;5036861;28;20083;-89
2024/01/04 07:54:29;;;;;;;4.68;1.55;;;;;;;-146.82;100.00;71671.09;5038656;28;20029;-89
2024/01/04 07:56:56;;;;;;;2.47;1.30;;;;;;;-146.82;100.00;71671.09;5037242;28;20029;-90
2024/01/04 07:59:23;;;;;;;5.32;1.70;;;;;;;-146.82;100.00;71671.09;5039433;28;20060;-91
2024/01/04 08:01:49;;;;;;;6.47;1.40;;;;;;;-146.82;100.00;71671.09;5038958;28;20021;-90
2024/01/04 08:04:15;;;;;;;3.30;1.35;;;;;;;-146.82;100.00;71671.09;5038575;28;20467;-88
2024/01/04 08:06:40;;;;;;;2.80;1.40;;;;;;;-146.82;100.00;71671.09;5037912;28;20030;-91
2024/01/04 08:09:08;;;;;;;2.95;1.50;;;;;;;-146.82;100.00;71671.09;5036594;28;20033;-91
2024/01/04 08:11:34;;;;;;;5.03;1.88;;;;;;;-146.82;100.00;71671.09;5037024;28;20048;-88
2024/01/04 08:14:09;;;;;;;4.63;1.88;;;;;;;-146.82;100.00;71671.09;5038016;28;20037;-90
2024/01/04 08:16:34;;;;;;;4.40;2.00;;;;;;;-146.82;100.00;71671.09;5038360;28;20045;-89
2024/01/04 08:19:01;;;;;;;4.88;2.20;;;;;;;-146.82;100.00;71671.09;5038311;28;20032;-88
2024/01/04 08:21:27;;;;;;;4.60;2.63;;;;;;;-146.82;100.00;71671.09;5038374;28;20394;-89
2024/01/04 08:23:53;;;;;;;5.30;2.70;;;;;;;-146.82;100.00;71671.09;5038228;28;20030;-89
2024/01/04 08:26:19;;;;;;;8.88;2.95;;;;;;;-146.82;100.00;71671.09;5039451;28;20056;-89
2024/01/04 08:28:46;;;;;;;7.18;2.00;;;;;;;-146.82;100.00;71671.09;5038130;28;20120;-90
2024/01/04 08:31:13;;;;;;;2.38;1.50;;;;;;;-146.82;100.00;71671.09;5021881;28;20041;-88
2024/01/04 08:33:44;;;;;;;2.75;1.98;;;;;;;-146.82;100.00;71671.09;5041519;28;20112;-89
2024/01/04 08:36:09;;;;;;;3.38;2.00;;;;;;;-146.82;100.00;71671.09;5041485;28;20037;-87
2024/01/04 08:38:35;;;;;;;3.75;1.90;;;;;;;-146.82;100.00;71671.09;5041096;28;20069;-87
2024/01/04 08:41:03;;;;;;;7.53;1.80;;;;;;;-146.82;100.00;71671.09;5041563;28;20099;-88
2024/01/04 08:43:29;;;;;;;2.83;1.67;;;;;;;-146.82;100.00;71671.09;5039270;28;20029;-89
2024/01/04 08:45:56;;;;;;;2.00;1.48;;;;;;;-146.82;100.00;71671.09;5038510;28;20087;-89
2024/01/04 08:48:22;;;;;;;1.52;1.10;;;;;;;-146.82;100.00;71671.09;5039145;28;20033;-88
2024/01/04 08:50:48;;;;;;;1.33;0.70;;;;;;;-146.82;100.00;71671.09;5043626;28;20494;-87
2024/01/04 08:53:20;;;;;;;3.03;1.23;;;;;;;-146.82;100.00;71671.09;5046792;28;20033;-88
2024/01/04 08:55:49;;;;;;;2.67;0.93;;;;;;;-146.82;100.00;71671.09;5045576;28;20056;-90
2024/01/04 08:58:17;;;;;;;1.80;0.63;;;;;;;-146.82;100.00;71671.09;5042717;28;20045;-90
2024/01/04 09:00:43;;;;;;;3.15;0.95;;;;;;;-146.82;100.00;71671.09;5038801;28;20021;-90
2024/01/04 09:03:12;;;;;;;1.08;0.70;;;;;;;-146.82;100.00;71671.09;5038816;28;20025;-89
2024/01/04 09:05:37;;;;;;;1.90;0.90;;;;;;;-146.82;100.00;71671.09;5021327;28;20028;-89
2024/01/04 09:08:05;;;;;;;2.78;0.70;;;;;;;-146.82;100.00;71671.09;5035584;28;20017;-90
2024/01/04 09:10:31;;;;;;;1.15;0.90;;;;;;;-146.82;100.00;71671.09;5036955;28;20509;-89
2024/01/04 09:12:57;;;;;;;1.45;0.88;;;;;;;-146.82;100.00;71671.09;5037361;28;20501;-90
2024/01/04 09:15:23;;;;;;;1.83;1.05;;;;;;;-146.82;100.00;71671.09;5036732;28;20026;-89
2024/01/04 09:17:49;;;;;;;3.35;1.23;;;;;;;-146.82;100.00;71671.09;5036714;28;20017;-89
2024/01/04 09:20:17;;;;;;;2.08;1.02;;;;;;;-146.82;100.00;71671.09;5020549;28;20045;-89
2024/01/04 09:22:44;;;;;;;1.55;1.30;;;;;;;-146.82;100.00;71671.09;5045220;28;20021;-87
2024/01/04 09:25:11;;;;;;;2.92;1.02;;;;;;;-146.82;100.00;71671.09;5045567;28;20017;-89
2024/01/04 09:27:38;;;;;;;5.40;1.50;;;;;;;-146.82;100.00;71671.09;5028313;28;20068;-88
2024/01/04 09:30:04;;;;;;;1.35;1.13;;;;;;;-146.82;100.00;71671.09;5041471;28;20089;-88
2024/01/04 09:32:31;;;;;;;1.48;0.90;;;;;;;-146.82;100.00;71671.09;5043096;28;20029;-89
2024/01/04 09:34:57;;;;;;;1.38;0.95;;;;;;;-146.82;100.00;71671.09;5045195;28;20025;-89
2024/01/04 09:37:22;;;;;;;1.92;1.25;;;;;;;-146.82;100.00;71671.09;5023154;28;20120;-89
2024/01/04 09:39:48;;;;;;;2.80;1.00;;;;;;;-146.82;100.00;71671.09;5046502;28;20095;-88
2024/01/04 09:42:14;;;;;;;2.33;1.08;;;;;;;-146.82;100.00;71671.09;5027018;28;20079;-88
2024/01/04 09:44:42;;;;;;;3.05;1.00;;;;;;;-146.82;100.00;71671.09;5039048;28;20025;-86
2024/01/04 09:47:09;;;;;;;1.27;0.70;;;;;;;-146.82;100.00;71671.09;5043296;28;20028;-87
2024/01/04 09:49:39;;;;;;;2.00;0.80;;;;;;;-146.82;100.00;71671.09;5023604;28;20116;-89
2024/01/04 09:52:06;;;;;;;2.22;1.00;;;;;;;-146.82;100.00;71671.09;5041371;28;20048;-87
2024/01/04 09:54:33;;;;;;;2.95;1.00;;;;;;;-146.82;100.00;71671.09;5039089;28;20359;-88
2024/01/04 09:57:01;;;;;;;1.00;0.70;;;;;;;-146.82;100.00;71671.09;5039952;28;20555;-89
2024/01/04 09:59:29;;;;;;;5.78;0.98;;;;;;;-146.82;100.00;71671.09;5040050;28;20101;-88
2024/01/04 10:01:58;;;;;;;0.65;0.50;;;;;;;-146.82;100.00;71671.09;5022806;28;20034;-89
2024/01/04 10:04:24;;;;;;;1.02;0.70;;;;;;;-146.82;100.00;71671.09;5043011;28;20028;-88
2024/01/04 10:06:50;;;;;;;0.93;0.68;;;;;;;-146.82;100.00;71671.09;5041517;28;20045;-90
2024/01/04 10:09:47;;;;;;;0.50;0.50;;;;;;;-146.82;100.00;71671.09;5022711;28;20057;-91
2024/01/04 10:12:15;;;;;;;0.85;0.55;;;;;;;-146.82;100.00;71671.09;5022552;28;20037;-88
2024/01/04 10:14:41;;;;;;;0.80;0.55;;;;;;;-146.82;100.00;71671.09;5047611;28;20033;-88
2024/01/04 10:17:10;;;;;;;1.23;0.30;;;;;;;-146.82;100.00;71671.09;5046982;28;20127;-89
2024/01/04 10:19:37;;;;;;;2.70;0.55;;;;;;;-146.82;100.00;71671.09;5044589;28;20056;-89
2024/01/04 10:22:05;;;;;;;1.52;0.50;;;;;;;-146.82;100.00;71671.09;5043850;28;20479;-88
2024/01/04 10:24:40;;;;;;;1.75;0.80;;;;;;;-146.82;100.00;71671.09;5045859;28;20077;-88
2024/01/04 10:27:07;;;;;;;2.00;0.75;;;;;;;-146.82;100.00;71671.09;5042265;28;20029;-89
2024/01/04 10:29:36;;;;;;;3.05;0.70;;;;;;;-146.82;100.00;71671.09;5025924;28;20076;-87
2024/01/04 10:32:05;;;;;;;3.20;0.90;;;;;;;-146.82;100.00;71671.09;5026426;28;20026;-88
2024/01/04 10:34:37;;;;;;;1.67;0.80;;;;;;;-146.82;100.00;71671.09;5040901;28;20381;-88
2024/01/04 10:37:08;;;;;;;;;;;;;;;-146.82;100.00;71671.09;5040254;28;20029;-87
2024/01/04 10:39:36;;;;;;;2.35;0.82;;;;;;;-146.82;100.00;71671.09;5041929;28;19909;-89
2024/01/04 10:42:01;;;;;;;1.38;1.10;;;;;;;-146.82;100.00;71671.09;5006239;28;20038;-88
2024/01/04 10:44:28;;;;;;;4.28;1.00;;;;;;;-146.82;100.00;71671.09;5039612;28;20037;-89
2024/01/04 10:46:55;;;;;;;6.05;1.23;;;;;;;-146.82;100.00;71671.09;5041202;28;20021;-88
2024/01/04 10:49:26;;;;;;;3.40;1.00;;;;;;;-146.82;100.00;71671.09;5006992;28;20038;-88
2024/01/04 10:52:01;;;;;;;1.85;1.00;;;;;;;-146.82;100.00;71671.09;5041912;28;20032;-89
2024/01/04 10:54:37;;;;;;;1.95;1.10;;;;;;;-146.82;100.00;71671.09;5026234;28;20033;-88
2024/01/04 10:57:02;;;;;;;2.33;0.70;;;;;;;-146.82;100.00;71671.09;5025242;28;20099;-87
2024/01/04 10:59:32;;;;;;;1.30;0.90;;;;;;;-146.82;100.00;71671.09;5023988;28;20459;-88
2024/01/04 11:02:06;;;;;;;3.03;0.85;;;;;;;-146.82;100.00;71671.09;5038473;28;20048;-89
2024/01/04 11:04:36;;;;;;;2.00;0.98;;;;;;;-146.82;100.00;71671.09;5041943;28;20055;-88
2024/01/04 11:07:03;;;;;;;0.93;0.70;;;;;;;-146.82;100.00;71671.09;5024371;28;20070;-89
2024/01/04 11:09:34;;;;;;;2.33;0.90;;;;;;;-146.82;100.00;71671.09;5040732;28;20036;-89